createdAt,value
2023-06-30T00:00:10.013Z,18.1
2023-06-30T00:03:11.200Z,18.1
2023-06-30T00:06:09.928Z,18.1
2023-06-30T00:09:09.879Z,18.1
2023-06-30T00:12:10.067Z,18.1
2023-06-30T00:15:09.937Z,18.1
2023-06-30T00:18:10.326Z,18.1
2023-06-30T00:21:09.855Z,18.1
2023-06-30T00:24:09.938Z,18.1
2023-06-30T00:27:10.130Z,18.1
2023-06-30T00:30:09.945Z,18.1
2023-06-30T00:33:10.477Z,18.1
2023-06-30T00:36:09.898Z,18.1
2023-06-30T00:39:10.151Z,18.1
2023-06-30T00:42:10.096Z,18.1
2023-06-30T00:45:10.187Z,18.1
2023-06-30T00:48:10.243Z,18.1
2023-06-30T00:51:09.952Z,18.1
2023-06-30T00:54:09.981Z,18.1
2023-06-30T00:57:09.857Z,18.1
2023-06-30T01:00:10.129Z,18.1
2023-06-30T01:03:10.585Z,18.1
2023-06-30T01:06:09.912Z,18.1
2023-06-30T01:09:09.852Z,18.1
2023-06-30T01:12:10.067Z,18.1
2023-06-30T01:15:10.005Z,18.1
2023-06-30T01:18:10.364Z,18.1
2023-06-30T01:21:10.159Z,18.1
2023-06-30T01:24:09.958Z,18.1
2023-06-30T01:27:09.881Z,18.1
2023-06-30T01:30:10.556Z,18
2023-06-30T01:33:10.218Z,18
2023-06-30T01:36:10.063Z,18
2023-06-30T01:39:09.920Z,17.9
2023-06-30T01:42:09.850Z,17.9
2023-06-30T01:45:09.910Z,17.9
2023-06-30T01:48:10.180Z,17.9
2023-06-30T01:51:09.924Z,17.8
2023-06-30T01:54:09.977Z,17.7
2023-06-30T01:57:09.930Z,17.6
2023-06-30T02:00:10.185Z,17.6
2023-06-30T02:03:10.508Z,17.5
2023-06-30T02:06:09.914Z,17.4
2023-06-30T02:09:10.178Z,17.4
2023-06-30T02:12:10.330Z,17.3
2023-06-30T02:15:10.742Z,17.2
2023-06-30T02:18:09.902Z,17.2
2023-06-30T02:21:09.926Z,17.3
2023-06-30T02:24:09.952Z,17.2
2023-06-30T02:27:09.974Z,17.2
2023-06-30T02:30:10.019Z,17.1
2023-06-30T02:33:09.951Z,17.1
2023-06-30T02:36:10.010Z,17.1
2023-06-30T02:39:09.967Z,17
2023-06-30T02:42:09.961Z,16.9
2023-06-30T02:45:09.855Z,16.9
2023-06-30T02:48:10.325Z,16.9
2023-06-30T02:51:09.889Z,16.8
2023-06-30T02:54:10.016Z,16.8
2023-06-30T02:57:09.816Z,16.8
2023-06-30T03:00:10.007Z,16.9
2023-06-30T03:03:10.652Z,16.9
2023-06-30T03:06:09.996Z,16.9
2023-06-30T03:09:10.003Z,16.9
2023-06-30T03:12:09.974Z,17
2023-06-30T03:15:10.118Z,17
2023-06-30T03:18:10.322Z,17
2023-06-30T03:21:10.084Z,17
2023-06-30T03:24:09.993Z,17.1
2023-06-30T03:27:09.962Z,17.1
2023-06-30T03:30:10.091Z,17.1
2023-06-30T03:33:10.109Z,17.2
2023-06-30T03:36:10.026Z,17.2
2023-06-30T03:39:09.980Z,17.3
2023-06-30T03:42:09.932Z,17.3
2023-06-30T03:45:10.188Z,17.4
2023-06-30T03:48:10.281Z,17.4
2023-06-30T03:51:10.019Z,17.4
2023-06-30T03:54:12.308Z,17.4
2023-06-30T03:57:10.299Z,17.4
2023-06-30T04:00:10.235Z,17.4
2023-06-30T04:03:11.170Z,17.4
2023-06-30T04:06:09.950Z,17.4
2023-06-30T04:09:10.196Z,17.4
2023-06-30T04:12:10.247Z,17.5
2023-06-30T04:15:09.986Z,17.6
2023-06-30T04:18:10.427Z,17.6
2023-06-30T04:21:09.958Z,17.6
2023-06-30T04:24:10.052Z,17.6
2023-06-30T04:27:09.920Z,17.6
2023-06-30T04:30:10.113Z,17.7
2023-06-30T04:33:10.395Z,17.7
2023-06-30T04:36:10.818Z,17.6
2023-06-30T04:39:10.556Z,17.6
2023-06-30T04:42:10.564Z,17.6
2023-06-30T04:45:10.367Z,17.6
2023-06-30T04:48:10.417Z,17.6
2023-06-30T04:51:10.009Z,17.7
2023-06-30T04:54:10.003Z,17.7
2023-06-30T04:57:10.020Z,17.7
2023-06-30T05:00:10.256Z,17.7
2023-06-30T05:03:10.743Z,17.7
2023-06-30T05:06:10.059Z,17.6
2023-06-30T05:09:10.127Z,17.7
2023-06-30T05:12:09.935Z,17.7
2023-06-30T05:15:10.005Z,17.7
2023-06-30T05:18:10.240Z,17.7
2023-06-30T05:21:10.162Z,17.6
2023-06-30T05:24:10.099Z,17.6
2023-06-30T05:27:09.855Z,17.6
2023-06-30T05:30:10.766Z,17.6
2023-06-30T05:33:10.206Z,17.6
2023-06-30T05:36:10.350Z,17.5
2023-06-30T05:39:09.907Z,17.4
2023-06-30T05:42:10.123Z,17.4
2023-06-30T05:45:10.085Z,17.4
2023-06-30T05:48:10.356Z,17.3
2023-06-30T05:51:10.042Z,17.3
2023-06-30T05:54:10.027Z,17.2
2023-06-30T05:57:10.072Z,17.1
2023-06-30T06:00:10.222Z,17
2023-06-30T06:03:10.915Z,16.9
2023-06-30T06:06:10.342Z,16.9
2023-06-30T06:09:10.116Z,16.8
2023-06-30T06:12:10.169Z,16.7
2023-06-30T06:15:10.098Z,16.5
2023-06-30T06:18:10.496Z,16.6
2023-06-30T06:21:10.039Z,16.4
2023-06-30T06:24:10.128Z,16.4
2023-06-30T06:27:09.920Z,16.4
2023-06-30T06:30:09.979Z,16.3
2023-06-30T06:33:10.246Z,16.3
2023-06-30T06:36:10.070Z,16.2
2023-06-30T06:39:12.832Z,16.2
2023-06-30T06:42:09.959Z,16.1
2023-06-30T06:45:09.968Z,16.1
2023-06-30T06:48:10.040Z,16
2023-06-30T06:51:10.192Z,16
2023-06-30T06:54:09.962Z,16
2023-06-30T06:57:10.106Z,16
2023-06-30T07:00:14.608Z,16
2023-06-30T07:03:10.291Z,15.9
2023-06-30T07:06:10.034Z,15.8
2023-06-30T07:09:09.974Z,15.9
2023-06-30T07:12:10.144Z,16
2023-06-30T07:15:10.045Z,16
2023-06-30T07:18:10.666Z,16.1
2023-06-30T07:21:10.014Z,16.2
2023-06-30T07:24:10.074Z,16.3
2023-06-30T07:27:10.135Z,16.3
2023-06-30T07:30:10.077Z,16.2
2023-06-30T07:33:10.212Z,16.2
2023-06-30T07:36:10.008Z,16.1
2023-06-30T07:39:10.054Z,16.1
2023-06-30T07:42:11.965Z,16.1
2023-06-30T07:45:10.516Z,16.3
2023-06-30T07:48:10.669Z,16.3
2023-06-30T07:51:19.518Z,16.3
2023-06-30T07:54:10.022Z,16.2
2023-06-30T07:57:09.968Z,16.2
2023-06-30T08:00:10.066Z,16.2
2023-06-30T08:03:11.485Z,16.1
2023-06-30T08:06:12.013Z,16.1
2023-06-30T08:09:10.045Z,16.1
2023-06-30T08:12:09.952Z,15.9
2023-06-30T08:15:10.196Z,15.8
2023-06-30T08:18:37.189Z,15.6
2023-06-30T08:21:10.209Z,15.3
2023-06-30T08:24:09.945Z,15.3
2023-06-30T08:27:09.996Z,15.2
2023-06-30T08:30:09.972Z,15.3
2023-06-30T08:33:10.202Z,15.4
2023-06-30T08:36:10.054Z,15.5
2023-06-30T08:39:10.002Z,15.5
2023-06-30T08:42:09.972Z,15.6
2023-06-30T08:45:10.272Z,15.6
2023-06-30T08:48:10.723Z,15.6
2023-06-30T08:51:10.214Z,15.6
2023-06-30T08:54:10.113Z,15.6
2023-06-30T08:57:10.292Z,15.4
2023-06-30T09:00:10.365Z,15.5
2023-06-30T09:03:10.659Z,15.6
2023-06-30T09:06:10.101Z,15.8
2023-06-30T09:09:10.183Z,15.9
2023-06-30T09:12:09.926Z,15.9
2023-06-30T09:15:10.064Z,15.9
2023-06-30T09:18:10.859Z,15.9
2023-06-30T09:21:10.018Z,15.9
2023-06-30T09:24:10.458Z,15.9
2023-06-30T09:27:10.096Z,16
2023-06-30T09:30:09.957Z,16.1
2023-06-30T09:33:10.702Z,16.2
2023-06-30T09:36:10.019Z,16.2
2023-06-30T09:39:10.089Z,16.3
2023-06-30T09:42:10.072Z,16.3
2023-06-30T09:45:10.160Z,16.4
2023-06-30T09:48:12.454Z,16.4
2023-06-30T09:51:10.083Z,16.6
2023-06-30T09:54:09.999Z,16.7
2023-06-30T09:57:09.951Z,16.8
2023-06-30T10:00:25.838Z,16.9
2023-06-30T10:03:10.684Z,17.1
2023-06-30T10:06:10.177Z,17.3
2023-06-30T10:09:10.107Z,17.4
2023-06-30T10:12:10.388Z,17.4
2023-06-30T10:15:10.142Z,17.2
2023-06-30T10:18:10.243Z,17.2
2023-06-30T10:21:09.957Z,17.2
2023-06-30T10:24:10.060Z,17.2
2023-06-30T10:27:10.005Z,17.4
2023-06-30T10:30:10.174Z,17.7
2023-06-30T10:33:10.706Z,18
2023-06-30T10:36:09.988Z,18.6
2023-06-30T10:39:10.203Z,18.7
2023-06-30T10:42:09.965Z,18.4
2023-06-30T10:45:10.101Z,18.3
2023-06-30T10:48:10.289Z,18.1
2023-06-30T10:51:10.003Z,18.3
2023-06-30T10:54:10.112Z,18.2
2023-06-30T10:57:09.923Z,17.9
2023-06-30T11:00:10.165Z,17.9
2023-06-30T11:03:10.984Z,17.8
2023-06-30T11:06:10.064Z,17.8
2023-06-30T11:09:10.045Z,17.8
2023-06-30T11:12:10.010Z,17.8
2023-06-30T11:15:10.145Z,17.6
2023-06-30T11:18:10.648Z,17.8
2023-06-30T11:21:10.121Z,17.9
2023-06-30T11:24:10.040Z,17.8
2023-06-30T11:27:13.017Z,17.8
2023-06-30T11:30:10.028Z,17.9
2023-06-30T11:33:10.138Z,17.9
2023-06-30T11:36:10.121Z,17.9
2023-06-30T11:39:10.040Z,17.9
2023-06-30T11:42:09.961Z,17.9
2023-06-30T11:45:10.047Z,17.9
2023-06-30T11:48:10.227Z,17.8
2023-06-30T11:51:10.008Z,17.8
2023-06-30T11:54:10.274Z,17.9
2023-06-30T11:57:10.116Z,18.1
2023-06-30T12:00:10.275Z,18.1
2023-06-30T12:03:10.678Z,18.2
2023-06-30T12:06:10.326Z,18.3
2023-06-30T12:09:09.984Z,18.6
2023-06-30T12:12:10.020Z,18.8
2023-06-30T12:15:09.965Z,19
2023-06-30T12:18:10.281Z,19.2
2023-06-30T12:21:10.069Z,19
2023-06-30T12:24:10.015Z,19.2
2023-06-30T12:27:10.075Z,19.4
2023-06-30T12:30:10.134Z,19.6
2023-06-30T12:33:10.363Z,20
2023-06-30T12:36:10.337Z,20.4
2023-06-30T12:42:09.651Z,21
2023-06-30T12:45:09.746Z,20.9
2023-06-30T12:48:09.928Z,20.7
2023-06-30T12:51:09.909Z,20.3
2023-06-30T12:54:09.588Z,20.4
2023-06-30T12:57:09.544Z,20.4
2023-06-30T13:00:09.981Z,20.8
2023-06-30T13:03:10.445Z,20.8
2023-06-30T13:06:09.563Z,20.9
2023-06-30T13:09:09.638Z,20.9
2023-06-30T13:12:09.559Z,21
2023-06-30T13:15:09.626Z,21
2023-06-30T13:18:09.776Z,20.8
2023-06-30T13:21:09.623Z,20.4
2023-06-30T13:24:09.629Z,20.2
2023-06-30T13:27:09.813Z,20.1
2023-06-30T13:30:09.768Z,20.2
2023-06-30T13:33:11.776Z,20.2
2023-06-30T13:36:09.724Z,20.1
2023-06-30T13:39:09.787Z,19.6
2023-06-30T13:42:09.681Z,19.1
2023-06-30T13:45:11.640Z,18.6
2023-06-30T13:48:10.089Z,18.3
2023-06-30T13:51:09.603Z,18.2
2023-06-30T13:54:09.562Z,18
2023-06-30T13:57:09.721Z,17.9
2023-06-30T14:00:09.963Z,17.9
2023-06-30T14:03:10.154Z,18.1
2023-06-30T14:06:10.025Z,18.2
2023-06-30T14:09:09.582Z,18.3
2023-06-30T14:12:09.491Z,18.3
2023-06-30T14:15:09.637Z,18.3
2023-06-30T14:18:09.780Z,18.3
2023-06-30T14:21:09.565Z,18.6
2023-06-30T14:24:09.649Z,19.1
2023-06-30T14:27:09.649Z,19.4
2023-06-30T14:30:09.989Z,19.4
2023-06-30T14:33:10.020Z,19.3
2023-06-30T14:36:09.711Z,19.3
2023-06-30T14:39:09.491Z,19.7
2023-06-30T14:42:34.655Z,20.1
2023-06-30T14:45:09.887Z,20.1
2023-06-30T14:48:10.038Z,20.3
2023-06-30T14:51:09.654Z,20.4
2023-06-30T14:54:09.602Z,20.4
2023-06-30T14:57:09.602Z,20.3
2023-06-30T15:00:09.769Z,20.4
2023-06-30T15:03:10.233Z,20.6
2023-06-30T15:06:09.547Z,20.7
2023-06-30T15:09:09.534Z,20.8
2023-06-30T15:12:10.036Z,20.7
2023-06-30T15:15:09.671Z,20.7
2023-06-30T15:18:09.927Z,20.3
2023-06-30T15:21:09.708Z,20.1
2023-06-30T15:24:09.700Z,19.8
2023-06-30T15:27:09.866Z,19.9
2023-06-30T15:30:09.782Z,20.5
2023-06-30T15:33:10.332Z,20.6
2023-06-30T15:36:09.680Z,20.7
2023-06-30T15:39:09.748Z,21
2023-06-30T15:42:09.629Z,21.4
2023-06-30T15:45:09.702Z,21.7
2023-06-30T15:48:09.936Z,21.5
2023-06-30T15:51:09.626Z,21.4
2023-06-30T15:54:09.571Z,21.3
2023-06-30T15:57:09.616Z,21
2023-06-30T16:00:09.646Z,20.9
2023-06-30T16:03:10.332Z,20.8
2023-06-30T16:06:10.198Z,20.7
2023-06-30T16:09:09.608Z,20.6
2023-06-30T16:12:09.528Z,20.4
2023-06-30T16:15:09.797Z,20.2
2023-06-30T16:18:09.900Z,20
2023-06-30T16:21:09.675Z,20
2023-06-30T16:24:09.710Z,20
2023-06-30T16:27:09.516Z,20.3
2023-06-30T16:30:09.621Z,20.4
2023-06-30T16:33:10.389Z,20.4
2023-06-30T16:36:09.602Z,20.3
2023-06-30T16:39:09.611Z,20.3
2023-06-30T16:42:10.021Z,20
2023-06-30T16:45:09.713Z,19.9
2023-06-30T16:48:09.941Z,19.8
2023-06-30T16:51:09.628Z,19.7
2023-06-30T16:54:09.533Z,19.6
2023-06-30T16:57:09.658Z,19.6
2023-06-30T17:00:10.106Z,19.6
2023-06-30T17:03:10.271Z,19.8
2023-06-30T17:06:10.052Z,20.1
2023-06-30T17:09:09.584Z,20.3
2023-06-30T17:12:09.676Z,20.2
2023-06-30T17:15:09.665Z,20.1
2023-06-30T17:18:09.875Z,20
2023-06-30T17:21:09.748Z,19.9
2023-06-30T17:24:09.559Z,19.8
2023-06-30T17:27:09.598Z,19.4
2023-06-30T17:30:09.847Z,19.3
2023-06-30T17:33:09.874Z,19.1
2023-06-30T17:36:11.535Z,18.9
2023-06-30T17:39:09.556Z,18.9
2023-06-30T17:42:09.639Z,19
2023-06-30T17:45:09.653Z,19
2023-06-30T17:48:09.970Z,19.1
2023-06-30T17:51:09.675Z,19
2023-06-30T17:54:09.671Z,19
2023-06-30T17:57:09.712Z,18.9
2023-06-30T18:00:09.738Z,18.9
2023-06-30T18:03:09.970Z,18.9
2023-06-30T18:06:09.799Z,18.7
2023-06-30T18:09:09.608Z,18.6
2023-06-30T18:12:09.571Z,18.4
2023-06-30T18:15:09.710Z,18.3
2023-06-30T18:18:10.013Z,18.1
2023-06-30T18:21:09.544Z,18
2023-06-30T18:24:09.564Z,17.9
2023-06-30T18:27:09.625Z,17.9
2023-06-30T18:30:09.785Z,17.8
2023-06-30T18:33:09.804Z,17.8
2023-06-30T18:36:09.623Z,17.8
2023-06-30T18:39:13.034Z,17.8
2023-06-30T18:42:09.610Z,17.8
2023-06-30T18:45:09.610Z,17.7
2023-06-30T18:48:09.988Z,17.6
2023-06-30T18:51:09.582Z,17.5
2023-06-30T18:54:10.095Z,17.4
2023-06-30T18:57:09.644Z,17.2
2023-06-30T19:00:09.667Z,17.1
2023-06-30T19:03:10.494Z,16.9
2023-06-30T19:06:09.618Z,16.8
2023-06-30T19:09:09.777Z,16.6
2023-06-30T19:12:09.563Z,16.4
2023-06-30T19:15:09.808Z,16.3
2023-06-30T19:18:09.860Z,16.2
2023-06-30T19:21:09.989Z,16.1
2023-06-30T19:24:09.694Z,15.9
2023-06-30T19:27:10.068Z,15.8
2023-06-30T19:30:09.621Z,15.7
2023-06-30T19:33:09.756Z,15.6
2023-06-30T19:36:09.482Z,15.5
2023-06-30T19:39:09.648Z,15.4
2023-06-30T19:42:09.694Z,15.3
2023-06-30T19:45:09.592Z,15.2
2023-06-30T19:48:10.081Z,15.1
2023-06-30T19:51:09.510Z,14.9
2023-06-30T19:54:09.627Z,14.8
2023-06-30T19:57:09.541Z,14.6
2023-06-30T20:00:09.694Z,14.4
2023-06-30T20:03:10.386Z,14.3
2023-06-30T20:06:09.492Z,14
2023-06-30T20:09:09.640Z,13.8
2023-06-30T20:12:11.748Z,13.4
2023-06-30T20:15:09.740Z,13.2
2023-06-30T20:18:09.892Z,13
2023-06-30T20:21:09.522Z,12.8
2023-06-30T20:24:10.388Z,12.7
2023-06-30T20:27:09.713Z,12.7
2023-06-30T20:30:09.611Z,12.6
2023-06-30T20:33:09.941Z,12.6
2023-06-30T20:36:09.523Z,12.6
2023-06-30T20:39:09.591Z,12.6
2023-06-30T20:42:09.620Z,12.7
2023-06-30T20:45:09.947Z,12.9
2023-06-30T20:48:09.723Z,13
2023-06-30T20:51:09.611Z,13.1
2023-06-30T20:54:09.516Z,13.3
2023-06-30T20:57:09.514Z,13.5
2023-06-30T21:00:10.005Z,13.8
2023-06-30T21:03:10.343Z,13.8
2023-06-30T21:06:09.804Z,13.9
2023-06-30T21:09:09.490Z,13.9
2023-06-30T21:12:09.471Z,13.9
2023-06-30T21:15:09.546Z,14
2023-06-30T21:18:09.957Z,14
2023-06-30T21:21:09.515Z,14.1
2023-06-30T21:24:09.683Z,14.1
2023-06-30T21:27:09.529Z,14.1
2023-06-30T21:30:09.627Z,14.1
2023-06-30T21:33:13.027Z,14.2
2023-06-30T21:36:09.576Z,14.2
2023-06-30T21:39:09.500Z,14.2
2023-06-30T21:42:09.610Z,14.1
2023-06-30T21:45:09.592Z,14.1
2023-06-30T21:48:11.774Z,14.1
2023-06-30T21:51:09.562Z,14
2023-06-30T21:54:12.302Z,14.1
2023-06-30T21:57:09.613Z,14.1
2023-06-30T22:00:10.351Z,14.1
2023-06-30T22:03:10.041Z,14.1
2023-06-30T22:06:09.638Z,14.1
2023-06-30T22:09:24.208Z,14.1
2023-06-30T22:12:09.598Z,14.1
2023-06-30T22:15:09.590Z,14.1
2023-06-30T22:18:09.745Z,14.1
2023-06-30T22:21:09.598Z,14.1
2023-06-30T22:24:09.824Z,14
2023-06-30T22:27:09.534Z,13.9
2023-06-30T22:30:10.004Z,13.8
2023-06-30T22:33:09.798Z,13.5
2023-06-30T22:36:09.531Z,13.3
2023-06-30T22:39:09.592Z,13
2023-06-30T22:42:09.554Z,12.8
2023-06-30T22:45:09.746Z,12.6
2023-06-30T22:48:09.907Z,12.3
2023-06-30T22:51:09.471Z,12.2
2023-06-30T22:54:09.494Z,12.4
2023-06-30T22:57:09.587Z,12.7
2023-06-30T23:00:09.588Z,12.8
2023-06-30T23:03:10.449Z,13
2023-06-30T23:06:09.470Z,13.1
2023-06-30T23:09:09.513Z,13.1
2023-06-30T23:12:09.705Z,13.2
2023-06-30T23:15:09.550Z,13.1
2023-06-30T23:18:10.156Z,13.2
2023-06-30T23:21:09.511Z,13.2
2023-06-30T23:24:09.688Z,13.3
2023-06-30T23:27:09.526Z,13.2
2023-06-30T23:30:09.765Z,12.9
2023-06-30T23:33:09.729Z,12.8
2023-06-30T23:36:09.444Z,12.6
2023-06-30T23:39:09.483Z,12.4
2023-06-30T23:42:10.063Z,12.2
2023-06-30T23:45:09.615Z,11.9
2023-06-30T23:48:09.701Z,11.8
2023-06-30T23:51:09.490Z,11.8
2023-06-30T23:54:09.579Z,11.9
2023-06-30T23:57:09.530Z,12.1
